Time;durP1;ratioP1;P1;durP2;ratioP2;P2;SDS_P1;SDS_P2;PMS_P1;PMS_P2;Temp;Humidity;BMP_temperature;BMP_pressure;BME280_temperature;BME280_humidity;BME280_pressure;Samples;Min_cycle;Max_cycle;Signal;HPM_P1;HPM_P2
2022/11/11 00:01:58;;;;;;;;;;;19.60;71.60;;;;;;5069144;28;1373;-69
2022/11/11 00:04:23;;;;;;;;;;;19.60;71.60;;;;;;5068975;28;903;-69
2022/11/11 00:06:49;;;;;;;;;;;19.60;71.60;;;;;;5065621;28;1042;-69
2022/11/11 00:09:14;;;;;;;;;;;19.60;71.60;;;;;;5062959;28;1279;-69
2022/11/11 00:11:39;;;;;;;;;;;19.60;71.60;;;;;;5063302;28;848;-69
2022/11/11 00:14:05;;;;;;;;;;;19.60;71.60;;;;;;5066605;28;997;-68
2022/11/11 00:25:04;;;;;;;;;;;19.60;71.60;;;;;;5063172;28;836;-69
2022/11/11 00:27:28;;;;;;;;;;;19.60;71.70;;;;;;5064672;28;1311;-69
2022/11/11 00:29:54;;;;;;;;;;;19.60;71.60;;;;;;5062903;28;888;-69
2022/11/11 00:32:22;;;;;;;;;;;19.60;71.60;;;;;;5067011;28;1272;-69
2022/11/11 00:37:43;;;;;;;;;;;19.60;71.70;;;;;;5025789;28;1242;-69
2022/11/11 00:40:09;;;;;;;;;;;19.60;71.60;;;;;;5051384;28;1910;-69
2022/11/11 00:42:34;;;;;;;;;;;19.60;71.60;;;;;;5052240;28;862;-68
2022/11/11 00:44:59;;;;;;;;;;;19.60;71.60;;;;;;5063344;28;867;-69
2022/11/11 00:52:58;;;;;;;;;;;19.60;71.60;;;;;;5063377;28;784;-69
2022/11/11 00:55:23;;;;;;;;;;;19.60;71.60;;;;;;5064277;28;842;-69
2022/11/11 00:57:49;;;;;;;;;;;19.60;71.70;;;;;;5063703;28;1361;-68
2022/11/11 01:00:14;;;;;;;;;;;19.60;71.60;;;;;;5067364;28;1960;-69
2022/11/11 01:02:40;;;;;;;;;;;19.60;71.70;;;;;;5064765;28;925;-69
2022/11/11 01:05:05;;;;;;;;;;;19.60;71.60;;;;;;5066010;28;803;-69
2022/11/11 01:07:31;;;;;;;;;;;19.60;71.70;;;;;;5045547;28;1263;-69
2022/11/11 01:09:56;;;;;;;;;;;19.60;71.70;;;;;;5067239;28;1346;-69
2022/11/11 01:12:22;;;;;;;;;;;19.60;71.70;;;;;;5064873;28;1096;-69
2022/11/11 01:14:47;;;;;;;;;;;19.60;71.70;;;;;;5061716;28;856;-69
2022/11/11 01:17:12;;;;;;;;;;;19.60;71.70;;;;;;5061569;28;1361;-69
2022/11/11 01:19:38;;;;;;;;;;;19.60;71.70;;;;;;5062233;28;1969;-69
2022/11/11 01:22:03;;;;;;;;;;;19.60;71.70;;;;;;5061142;28;880;-69
2022/11/11 01:24:29;;;;;;;;;;;19.60;71.70;;;;;;5062602;28;1053;-69
2022/11/11 01:26:54;;;;;;;;;;;19.60;71.70;;;;;;5062136;28;1061;-69
2022/11/11 01:29:20;;;;;;;;;;;19.60;71.70;;;;;;5066729;28;1272;-69
2022/11/11 01:31:45;;;;;;;;;;;19.60;71.70;;;;;;5065907;28;1393;-69
2022/11/11 01:34:11;;;;;;;;;;;19.60;71.70;;;;;;5064020;28;885;-69
2022/11/11 01:36:36;;;;;;;;;;;19.60;71.70;;;;;;5062960;28;826;-69
2022/11/11 01:39:02;;;;;;;;;;;19.60;71.70;;;;;;5062487;28;1973;-69
2022/11/11 01:41:31;;;;;;;;;;;19.60;71.70;;;;;;5064036;28;1047;-69
2022/11/11 01:43:57;;;;;;;;;;;19.60;71.70;;;;;;5066474;28;883;-69
2022/11/11 01:46:25;;;;;;;;;;;19.60;71.70;;;;;;5064931;28;843;-69
2022/11/11 01:51:37;;;;;;;;;;;19.60;71.70;;;;;;5047864;28;782;-69
2022/11/11 01:54:04;;;;;;;;;;;19.60;71.70;;;;;;5063368;28;899;-68
2022/11/11 01:56:29;;;;;;;;;;;19.60;71.70;;;;;;5063657;28;1389;-69
2022/11/11 01:58:56;;;;;;;;;;;19.60;71.70;;;;;;5062883;28;1397;-67
2022/11/11 02:01:22;;;;;;;;;;;19.60;71.70;;;;;;5064664;28;1938;-68
2022/11/11 02:06:31;;;;;;;;;;;19.60;71.70;;;;;;5050344;28;1356;-68
2022/11/11 02:08:57;;;;;;;;;;;19.60;71.70;;;;;;5044610;28;1501;-70
2022/11/11 02:16:51;;;;;;;;;;;19.60;71.70;;;;;;5050012;28;1486;-68
2022/11/11 02:19:17;;;;;;;;;;;19.60;71.70;;;;;;5049982;28;1902;-68
2022/11/11 02:21:44;;;;;;;;;;;19.60;71.70;;;;;;5063584;28;1450;-67
2022/11/11 02:24:10;;;;;;;;;;;19.60;71.70;;;;;;5049685;28;1303;-68
2022/11/11 02:26:35;;;;;;;;;;;19.60;71.70;;;;;;5050020;28;1293;-68
2022/11/11 02:29:01;;;;;;;;;;;19.60;71.80;;;;;;5064711;28;1337;-68
2022/11/11 02:31:27;;;;;;;;;;;19.60;71.80;;;;;;5050133;28;1439;-69
2022/11/11 02:33:53;;;;;;;;;;;19.60;71.80;;;;;;5048317;28;1310;-68
2022/11/11 02:36:18;;;;;;;;;;;19.60;71.80;;;;;;5063753;28;1569;-69
2022/11/11 02:38:44;;;;;;;;;;;19.60;71.80;;;;;;5061362;28;1303;-68
2022/11/11 02:43:53;;;;;;;;;;;19.60;71.80;;;;;;5063648;28;1192;-69
2022/11/11 02:46:19;;;;;;;;;;;19.60;71.80;;;;;;5064116;28;1415;-69
2022/11/11 02:48:44;;;;;;;;;;;19.60;71.80;;;;;;5065181;28;1288;-69
2022/11/11 02:51:10;;;;;;;;;;;19.60;71.80;;;;;;5060799;28;1431;-69
2022/11/11 02:53:35;;;;;;;;;;;19.60;71.80;;;;;;5063328;28;1780;-68
2022/11/11 02:56:01;;;;;;;;;;;19.60;71.80;;;;;;5065416;28;788;-70
2022/11/11 02:58:26;;;;;;;;;;;19.60;71.80;;;;;;5061501;28;1248;-69
2022/11/11 03:00:52;;;;;;;;;;;19.60;71.80;;;;;;5047418;28;1906;-68
2022/11/11 03:03:17;;;;;;;;;;;19.60;71.80;;;;;;5063562;28;1342;-68
2022/11/11 03:05:42;;;;;;;;;;;19.60;71.80;;;;;;5063549;28;890;-68
2022/11/11 03:08:08;;;;;;;;;;;19.60;71.80;;;;;;5060238;28;1232;-68
2022/11/11 03:10:33;;;;;;;;;;;19.60;71.80;;;;;;5049417;28;895;-68
2022/11/11 03:12:59;;;;;;;;;;;19.60;71.80;;;;;;5061163;28;1053;-68
2022/11/11 03:15:24;;;;;;;;;;;19.60;71.80;;;;;;5063520;28;1045;-68
2022/11/11 03:17:50;;;;;;;;;;;19.60;71.80;;;;;;5066143;28;1266;-69
2022/11/11 03:23:00;;;;;;;;;;;19.60;71.80;;;;;;5049094;28;818;-69
2022/11/11 03:25:37;;;;;;;;;;;19.60;71.80;;;;;;5063649;28;892;-69
2022/11/11 03:28:03;;;;;;;;;;;19.60;71.70;;;;;;5064197;28;1358;-69
2022/11/11 03:30:29;;;;;;;;;;;19.60;71.70;;;;;;5043572;28;882;-69
2022/11/11 03:32:54;;;;;;;;;;;19.60;71.70;;;;;;5067238;28;923;-70
2022/11/11 03:35:19;;;;;;;;;;;19.60;71.70;;;;;;5062089;28;998;-68
2022/11/11 03:40:29;;;;;;;;;;;19.60;71.70;;;;;;5066517;28;1932;-68
2022/11/11 03:42:54;;;;;;;;;;;19.60;71.70;;;;;;5069499;28;946;-71
2022/11/11 03:45:20;;;;;;;;;;;19.60;71.70;;;;;;5054305;28;894;-68
2022/11/11 03:47:45;;;;;;;;;;;19.60;71.70;;;;;;5062658;28;1257;-69
2022/11/11 03:50:11;;;;;;;;;;;19.60;71.70;;;;;;5071244;28;838;-70
2022/11/11 03:52:39;;;;;;;;;;;19.60;71.70;;;;;;5065013;28;919;-69
2022/11/11 03:55:05;;;;;;;;;;;19.60;71.70;;;;;;5071415;28;832;-70
2022/11/11 03:57:31;;;;;;;;;;;19.60;71.70;;;;;;5068356;28;1264;-69
2022/11/11 03:59:56;;;;;;;;;;;19.60;71.70;;;;;;5067944;28;1894;-69
2022/11/11 04:10:34;;;;;;;;;;;19.60;71.70;;;;;;5066643;28;861;-69
2022/11/11 04:16:26;;;;;;;;;;;19.60;71.70;;;;;;5068585;28;754;-68
2022/11/11 04:24:01;;;;;;;;;;;19.60;71.80;;;;;;5064946;28;733;-69
2022/11/11 04:26:26;;;;;;;;;;;19.60;71.70;;;;;;5030154;28;1303;-70
2022/11/11 04:31:36;;;;;;;;;;;19.60;71.80;;;;;;5062382;28;1457;-69
2022/11/11 04:34:01;;;;;;;;;;;19.60;71.80;;;;;;5067887;28;875;-69
2022/11/11 04:36:26;;;;;;;;;;;19.60;71.80;;;;;;5065373;28;942;-69
2022/11/11 04:41:36;;;;;;;;;;;19.60;71.80;;;;;;5064735;28;937;-69
2022/11/11 04:46:46;;;;;;;;;;;19.60;71.80;;;;;;5064387;28;1002;-68
2022/11/11 04:49:11;;;;;;;;;;;19.60;71.80;;;;;;5066603;28;1277;-70
2022/11/11 04:54:21;;;;;;;;;;;19.60;71.80;;;;;;5064133;28;797;-70
2022/11/11 04:56:46;;;;;;;;;;;19.60;71.80;;;;;;5065035;28;1002;-70
2022/11/11 04:59:15;;;;;;;;;;;19.60;71.80;;;;;;5052932;28;2003;-68
2022/11/11 05:04:24;;;;;;;;;;;19.60;71.80;;;;;;5053835;28;789;-68
2022/11/11 05:09:34;;;;;;;;;;;19.60;71.80;;;;;;5061997;28;930;-69
2022/11/11 05:11:59;;;;;;;;;;;19.60;71.80;;;;;;5065903;28;808;-69
2022/11/11 05:22:38;;;;;;;;;;;19.60;71.50;;;;;;5064809;28;757;-68
2022/11/11 05:27:47;;;;;;;;;;;19.70;71.40;;;;;;5063373;28;1860;-70
2022/11/11 05:30:13;;;;;;;;;;;19.70;71.40;;;;;;5064311;28;1755;-70
2022/11/11 05:32:39;;;;;;;;;;;19.70;71.20;;;;;;5051639;28;1338;-70
2022/11/11 05:35:04;;;;;;;;;;;19.70;71.10;;;;;;5064347;28;1403;-71
2022/11/11 05:37:30;;;;;;;;;;;19.80;71.10;;;;;;5061098;28;1734;-70
2022/11/11 05:39:55;;;;;;;;;;;19.80;71.00;;;;;;5065665;28;1905;-71
2022/11/11 05:42:21;;;;;;;;;;;19.80;70.90;;;;;;5050187;28;872;-71
2022/11/11 05:44:46;;;;;;;;;;;19.80;70.80;;;;;;5063855;28;842;-71
2022/11/11 05:47:12;;;;;;;;;;;19.80;70.80;;;;;;5064760;28;1329;-71
2022/11/11 05:49:37;;;;;;;;;;;19.80;70.70;;;;;;5062729;28;876;-71
2022/11/11 05:52:03;;;;;;;;;;;19.90;70.70;;;;;;5065519;28;905;-71
2022/11/11 05:54:28;;;;;;;;;;;19.90;70.60;;;;;;5069098;28;814;-67
2022/11/11 05:56:54;;;;;;;;;;;19.90;70.50;;;;;;5050572;28;989;-67
2022/11/11 05:59:19;;;;;;;;;;;19.90;70.50;;;;;;5061446;28;1965;-68
2022/11/11 06:01:45;;;;;;;;;;;19.90;70.50;;;;;;5068672;28;1363;-68
2022/11/11 06:04:11;;;;;;;;;;;19.90;70.40;;;;;;5064722;28;847;-69
2022/11/11 06:06:36;;;;;;;;;;;20.00;70.40;;;;;;5061597;28;762;-68
2022/11/11 06:09:02;;;;;;;;;;;20.00;70.30;;;;;;5062310;28;1350;-69
2022/11/11 06:11:28;;;;;;;;;;;20.00;70.30;;;;;;5050547;28;926;-68
2022/11/11 06:13:53;;;;;;;;;;;20.00;70.30;;;;;;5064164;28;1231;-68
2022/11/11 06:16:19;;;;;;;;;;;20.00;70.20;;;;;;5047557;28;842;-67
2022/11/11 06:18:44;;;;;;;;;;;20.00;70.20;;;;;;5042898;28;1704;-67
2022/11/11 06:21:10;;;;;;;;;;;20.00;70.20;;;;;;5047099;28;1961;-67
2022/11/11 06:23:35;;;;;;;;;;;20.00;70.10;;;;;;5065831;28;859;-68
2022/11/11 06:26:13;;;;;;;;;;;20.00;70.10;;;;;;5061580;28;1026;-68
2022/11/11 06:28:46;;;;;;;;;;;20.00;70.10;;;;;;5048916;28;1381;-68
2022/11/11 06:31:13;;;;;;;;;;;20.00;70.10;;;;;;5059536;28;1484;-69
2022/11/11 06:33:38;;;;;;;;;;;20.00;70.00;;;;;;5060513;28;839;-68
2022/11/11 06:36:04;;;;;;;;;;;20.00;70.00;;;;;;5065329;28;839;-68
2022/11/11 06:38:29;;;;;;;;;;;20.00;70.00;;;;;;5066032;28;1343;-68
2022/11/11 06:40:55;;;;;;;;;;;20.10;70.10;;;;;;5062418;28;1977;-69
2022/11/11 06:43:20;;;;;;;;;;;20.00;70.00;;;;;;5061666;28;936;-72
2022/11/11 06:45:48;;;;;;;;;;;20.00;70.00;;;;;;5059546;28;814;-71
2022/11/11 06:48:14;;;;;;;;;;;20.00;70.00;;;;;;5064076;28;1240;-71
2022/11/11 06:50:39;;;;;;;;;;;20.00;70.00;;;;;;5064808;28;1002;-73
2022/11/11 06:53:05;;;;;;;;;;;20.00;70.00;;;;;;5050631;28;843;-72
2022/11/11 06:55:31;;;;;;;;;;;20.00;69.90;;;;;;5034706;28;1335;-72
2022/11/11 06:58:03;;;;;;;;;;;20.00;70.00;;;;;;5059459;28;1236;-72
2022/11/11 07:00:28;;;;;;;;;;;20.00;70.00;;;;;;5042048;28;1966;-72
2022/11/11 07:02:55;;;;;;;;;;;20.00;70.00;;;;;;5061783;28;1593;-72
2022/11/11 07:05:21;;;;;;;;;;;20.00;70.00;;;;;;5060476;28;844;-70
2022/11/11 07:07:46;;;;;;;;;;;20.00;70.00;;;;;;5060509;28;1272;-71
2022/11/11 07:10:11;;;;;;;;;;;20.00;70.10;;;;;;5061220;28;1327;-70
2022/11/11 07:12:39;;;;;;;;;;;20.00;70.00;;;;;;5058778;28;871;-71
2022/11/11 07:15:04;;;;;;;;;;;20.00;70.00;;;;;;5059619;28;946;-69
2022/11/11 07:17:30;;;;;;;;;;;20.00;70.00;;;;;;5065734;28;1264;-70
2022/11/11 07:19:55;;;;;;;;;;;20.00;70.10;;;;;;5063490;28;1910;-69
2022/11/11 07:22:21;;;;;;;;;;;20.00;70.10;;;;;;5063681;28;1058;-70
2022/11/11 07:24:46;;;;;;;;;;;20.00;70.10;;;;;;5064384;28;801;-70
2022/11/11 07:27:12;;;;;;;;;;;20.00;70.10;;;;;;5065461;28;1323;-70
2022/11/11 07:29:37;;;;;;;;;;;20.00;70.10;;;;;;5063460;28;868;-70
2022/11/11 07:32:03;;;;;;;;;;;20.00;70.10;;;;;;5064409;28;1419;-70
2022/11/11 07:34:28;;;;;;;;;;;20.00;70.20;;;;;;5066233;28;824;-70
2022/11/11 07:36:54;;;;;;;;;;;20.00;70.20;;;;;;5070493;28;876;-69
2022/11/11 07:39:19;;;;;;;;;;;20.00;70.20;;;;;;5069002;28;1973;-69
2022/11/11 07:41:45;;;;;;;;;;;20.00;70.20;;;;;;5064955;28;895;-70
2022/11/11 07:44:10;;;;;;;;;;;19.90;70.20;;;;;;5064882;28;922;-69
2022/11/11 07:46:36;;;;;;;;;;;19.90;70.20;;;;;;5065435;28;794;-69
2022/11/11 07:49:01;;;;;;;;;;;19.90;70.20;;;;;;5065995;28;1232;-69
2022/11/11 07:51:27;;;;;;;;;;;20.00;70.30;;;;;;5068437;28;926;-69
2022/11/11 07:53:52;;;;;;;;;;;20.00;70.30;;;;;;5064823;28;791;-69
2022/11/11 07:56:17;;;;;;;;;;;20.00;70.30;;;;;;5063754;28;780;-69
2022/11/11 07:58:43;;;;;;;;;;;19.90;70.30;;;;;;5066690;28;1359;-69
2022/11/11 08:01:09;;;;;;;;;;;19.90;70.30;;;;;;5066601;28;1959;-70
2022/11/11 08:03:34;;;;;;;;;;;19.90;70.30;;;;;;5066239;28;1274;-70
2022/11/11 08:06:01;;;;;;;;;;;19.90;70.30;;;;;;5064622;28;859;-70
2022/11/11 08:08:26;;;;;;;;;;;19.90;70.40;;;;;;5062711;28;1254;-70
2022/11/11 08:10:54;;;;;;;;;;;19.90;70.40;;;;;;5066850;28;804;-70
2022/11/11 08:16:05;;;;;;;;;;;19.90;70.40;;;;;;5062687;28;758;-70
2022/11/11 08:18:31;;;;;;;;;;;19.90;70.40;;;;;;5064067;28;1293;-70
2022/11/11 08:20:57;;;;;;;;;;;19.90;70.40;;;;;;5065471;28;1993;-70
2022/11/11 08:23:31;;;;;;;;;;;19.90;70.40;;;;;;5064057;28;828;-70
2022/11/11 08:26:04;;;;;;;;;;;19.90;70.40;;;;;;5066760;28;855;-69
2022/11/11 08:28:30;;;;;;;;;;;19.90;70.40;;;;;;5045763;28;1353;-70
2022/11/11 08:30:58;;;;;;;;;;;19.90;70.30;;;;;;5061770;28;1077;-69
2022/11/11 08:33:24;;;;;;;;;;;20.00;71.10;;;;;;5052409;28;1636;-70
2022/11/11 08:35:52;;;;;;;;;;;20.00;70.30;;;;;;5052964;28;887;-70
2022/11/11 08:38:17;;;;;;;;;;;20.00;70.30;;;;;;5068357;28;1343;-70
2022/11/11 08:40:43;;;;;;;;;;;20.00;70.20;;;;;;5064803;28;1910;-70
2022/11/11 08:43:08;;;;;;;;;;;20.00;70.10;;;;;;5045339;28;856;-70
2022/11/11 08:45:34;;;;;;;;;;;20.00;70.10;;;;;;5064749;28;938;-70
2022/11/11 08:47:59;;;;;;;;;;;20.00;70.10;;;;;;5061555;28;1315;-70
2022/11/11 08:50:25;;;;;;;;;;;20.10;70.10;;;;;;5064633;28;891;-70
2022/11/11 08:52:50;;;;;;;;;;;20.00;70.00;;;;;;5065601;28;820;-70
2022/11/11 08:55:16;;;;;;;;;;;20.00;70.70;;;;;;5048394;28;873;-70
2022/11/11 08:57:41;;;;;;;;;;;20.10;69.90;;;;;;5060228;28;1266;-69
2022/11/11 09:00:07;;;;;;;;;;;20.10;69.90;;;;;;5061265;28;1973;-70
2022/11/11 09:02:33;;;;;;;;;;;20.10;69.90;;;;;;5066161;28;1276;-69
2022/11/11 09:04:58;;;;;;;;;;;20.10;69.90;;;;;;5048062;28;1511;-70
2022/11/11 09:07:24;;;;;;;;;;;20.10;69.80;;;;;;5059607;28;1851;-68
2022/11/11 09:09:49;;;;;;;;;;;20.10;69.80;;;;;;5064147;28;2266;-68
2022/11/11 09:12:15;;;;;;;;;;;20.10;69.80;;;;;;5050680;28;1329;-70
2022/11/11 09:14:40;;;;;;;;;;;20.10;69.70;;;;;;5063582;28;1373;-70
2022/11/11 09:17:06;;;;;;;;;;;20.10;69.70;;;;;;5061318;28;1387;-70
2022/11/11 09:19:31;;;;;;;;;;;20.10;69.70;;;;;;5046806;28;2003;-70
2022/11/11 09:21:57;;;;;;;;;;;20.10;69.70;;;;;;5065388;28;803;-70
2022/11/11 09:24:22;;;;;;;;;;;20.10;69.70;;;;;;5067203;28;808;-70
2022/11/11 09:26:48;;;;;;;;;;;20.10;69.70;;;;;;5061992;28;851;-70
2022/11/11 09:29:13;;;;;;;;;;;20.10;69.80;;;;;;5062599;28;1271;-70
2022/11/11 09:31:39;;;;;;;;;;;20.10;69.80;;;;;;5062421;28;864;-71
2022/11/11 09:34:05;;;;;;;;;;;20.10;69.80;;;;;;5064343;28;805;-70
2022/11/11 09:36:31;;;;;;;;;;;20.10;69.80;;;;;;5064373;28;835;-70
2022/11/11 09:38:57;;;;;;;;;;;20.10;69.80;;;;;;5063253;28;1306;-71
2022/11/11 09:41:24;;;;;;;;;;;20.10;69.80;;;;;;5048028;28;1965;-70
2022/11/11 09:43:56;;;;;;;;;;;20.10;69.90;;;;;;5062565;28;816;-70
2022/11/11 09:46:27;;;;;;;;;;;20.10;69.90;;;;;;5045979;28;955;-70
2022/11/11 09:49:11;;;;;;;;;;;20.10;69.90;;;;;;5062807;28;1227;-71
2022/11/11 09:51:43;;;;;;;;;;;20.10;70.00;;;;;;5060911;28;788;-70
2022/11/11 09:54:10;;;;;;;;;;;20.10;70.00;;;;;;5061083;28;828;-70
2022/11/11 09:56:36;;;;;;;;;;;20.00;69.90;;;;;;5045155;28;1026;-70
2022/11/11 09:59:05;;;;;;;;;;;20.00;70.00;;;;;;5060231;28;1347;-70
2022/11/11 10:01:43;;;;;;;;;;;20.10;70.10;;;;;;5052005;28;1894;-70
2022/11/11 10:04:16;;;;;;;;;;;20.00;70.10;;;;;;5050430;28;839;-70
2022/11/11 10:06:41;;;;;;;;;;;20.00;70.00;;;;;;5049733;28;868;-70
2022/11/11 10:09:17;;;;;;;;;;;20.00;70.10;;;;;;5062989;28;1270;-70
2022/11/11 10:11:53;;;;;;;;;;;20.00;70.10;;;;;;5044897;28;1070;-70
2022/11/11 10:14:19;;;;;;;;;;;20.00;70.10;;;;;;5048172;28;873;-70
2022/11/11 10:16:52;;;;;;;;;;;20.00;70.20;;;;;;5060666;28;865;-70
2022/11/11 10:19:17;;;;;;;;;;;20.00;70.20;;;;;;5047239;28;1276;-71
2022/11/11 10:21:48;;;;;;;;;;;20.00;70.20;;;;;;5062886;28;1968;-71
2022/11/11 10:24:15;;;;;;;;;;;20.00;70.20;;;;;;5049991;28;894;-70
2022/11/11 10:26:42;;;;;;;;;;;20.00;70.30;;;;;;5048567;28;840;-71
2022/11/11 10:29:13;;;;;;;;;;;20.00;70.30;;;;;;5050114;28;1349;-71
2022/11/11 10:31:38;;;;;;;;;;;20.00;70.30;;;;;;5065064;28;1069;-71
2022/11/11 10:34:07;;;;;;;;;;;20.00;70.40;;;;;;5061732;28;930;-69
2022/11/11 10:36:33;;;;;;;;;;;19.90;70.30;;;;;;5063446;28;1100;-71
2022/11/11 10:38:59;;;;;;;;;;;19.90;70.40;;;;;;5047146;28;1370;-71
2022/11/11 10:41:30;;;;;;;;;;;19.90;70.40;;;;;;5047493;28;1902;-71
2022/11/11 10:43:56;;;;;;;;;;;19.90;70.40;;;;;;5065285;28;948;-70
2022/11/11 10:46:23;;;;;;;;;;;19.90;70.40;;;;;;5063854;28;1611;-70
2022/11/11 10:48:59;;;;;;;;;;;19.90;70.50;;;;;;5050221;28;1255;-69
2022/11/11 10:51:25;;;;;;;;;;;19.90;70.50;;;;;;5044522;28;1265;-69
2022/11/11 10:53:57;;;;;;;;;;;19.90;70.50;;;;;;5064224;28;900;-69
2022/11/11 10:56:49;;;;;;;;;;;19.90;70.50;;;;;;5067033;28;864;-69
2022/11/11 10:59:24;;;;;;;;;;;19.90;70.50;;;;;;5060427;28;1212;-68
2022/11/11 11:02:00;;;;;;;;;;;19.90;68.40;;;;;;5050820;28;1340;-68
2022/11/11 11:04:49;;;;;;;;;;;19.90;70.00;;;;;;5070462;28;905;-68
2022/11/11 11:07:16;;;;;;;;;;;19.90;68.60;;;;;;5057628;28;1368;-68
2022/11/11 11:09:48;;;;;;;;;;;19.90;67.70;;;;;;5049055;28;1038;-67
2022/11/11 11:12:14;;;;;;;;;;;19.90;67.40;;;;;;5053926;28;828;-68
2022/11/11 11:14:43;;;;;;;;;;;19.90;66.50;;;;;;5053845;28;853;-67
2022/11/11 11:17:12;;;;;;;;;;;19.90;66.70;;;;;;5053664;28;1225;-67
2022/11/11 11:19:37;;;;;;;;;;;19.80;66.60;;;;;;5053684;28;1993;-67
2022/11/11 11:22:03;;;;;;;;;;;19.80;65.70;;;;;;5068762;28;887;-68
2022/11/11 11:24:32;;;;;;;;;;;19.80;65.50;;;;;;5068847;28;875;-67
2022/11/11 11:27:01;;;;;;;;;;;19.80;65.10;;;;;;5052228;28;919;-70
2022/11/11 11:29:45;;;;;;;;;;;19.80;65.00;;;;;;5054491;28;1198;-69
2022/11/11 11:32:10;;;;;;;;;;;19.80;63.70;;;;;;5065284;28;1385;-68
2022/11/11 11:34:50;;;;;;;;;;;19.80;63.40;;;;;;5069729;28;886;-69
2022/11/11 11:37:15;;;;;;;;;;;19.80;64.00;;;;;;5069646;28;1371;-69
2022/11/11 11:39:41;;;;;;;;;;;19.70;63.90;;;;;;5067198;28;1977;-68
2022/11/11 11:42:07;;;;;;;;;;;19.70;64.00;;;;;;5053537;28;875;-68
2022/11/11 11:44:33;;;;;;;;;;;19.70;64.30;;;;;;5051182;28;1295;-69
2022/11/11 11:47:04;;;;;;;;;;;19.70;64.50;;;;;;5066615;28;898;-70
2022/11/11 11:49:32;;;;;;;;;;;19.70;64.80;;;;;;5063398;28;1276;-70
2022/11/11 11:52:04;;;;;;;;;;;19.70;65.20;;;;;;5053279;28;1195;-70
2022/11/11 11:54:29;;;;;;;;;;;19.70;65.50;;;;;;5050112;28;910;-70
2022/11/11 11:57:00;;;;;;;;;;;19.70;65.70;;;;;;5064615;28;895;-69
2022/11/11 11:59:41;;;;;;;;;;;19.70;65.80;;;;;;5053974;28;1894;-70
2022/11/11 12:02:25;;;;;;;;;;;19.70;66.10;;;;;;5067084;28;1286;-69
2022/11/11 12:05:03;;;;;;;;;;;19.70;66.30;;;;;;5066842;28;1084;-70
2022/11/11 12:07:31;;;;;;;;;;;19.60;66.40;;;;;;5051279;28;1547;-70
2022/11/11 12:10:00;;;;;;;;;;;19.60;66.50;;;;;;5065395;28;871;-69
2022/11/11 12:12:39;;;;;;;;;;;19.60;66.60;;;;;;5052259;28;925;-68
2022/11/11 12:15:22;;;;;;;;;;;19.70;66.90;;;;;;5047977;28;812;-70
2022/11/11 12:17:48;;;;;;;;;;;19.60;67.00;;;;;;5064365;28;1292;-70
2022/11/11 12:20:15;;;;;;;;;;;19.60;67.10;;;;;;5067958;28;1886;-70
2022/11/11 12:22:50;;;;;;;;;;;19.60;67.10;;;;;;5054648;28;1070;-70
2022/11/11 12:25:34;;;;;;;;;;;19.60;67.20;;;;;;5065698;28;951;-70
2022/11/11 12:27:59;;;;;;;;;;;19.60;67.40;;;;;;5065605;28;1265;-70
2022/11/11 12:30:28;;;;;;;;;;;19.60;67.50;;;;;;5064421;28;827;-70
2022/11/11 12:32:59;;;;;;;;;;;19.60;67.60;;;;;;5048838;28;1069;-70
2022/11/11 12:35:31;;;;;;;;;;;19.60;67.70;;;;;;5066211;28;880;-70
2022/11/11 12:38:01;;;;;;;;;;;19.60;67.80;;;;;;5066336;28;1364;-70
2022/11/11 12:40:45;;;;;;;;;;;19.60;67.80;;;;;;5054007;28;1976;-70
2022/11/11 12:43:14;;;;;;;;;;;19.60;67.90;;;;;;5066248;28;898;-70
2022/11/11 12:45:46;;;;;;;;;;;19.60;68.00;;;;;;5052912;28;820;-70
2022/11/11 12:48:24;;;;;;;;;;;19.60;68.10;;;;;;5070030;28;1326;-70
2022/11/11 12:50:52;;;;;;;;;;;19.60;68.10;;;;;;5060000;28;736;-70
2022/11/11 12:53:21;;;;;;;;;;;19.60;68.20;;;;;;5064105;28;941;-70
2022/11/11 12:56:00;;;;;;;;;;;19.60;68.20;;;;;;5064343;28;982;-70
2022/11/11 12:58:46;;;;;;;;;;;19.60;68.30;;;;;;5034843;28;1251;-69
2022/11/11 13:01:12;;;;;;;;;;;19.60;68.40;;;;;;5052357;28;1963;-69
2022/11/11 13:03:37;;;;;;;;;;;19.60;68.80;;;;;;5066812;28;1903;-69
2022/11/11 13:06:09;;;;;;;;;;;19.60;68.40;;;;;;5061915;28;1089;-69
2022/11/11 13:08:53;;;;;;;;;;;19.60;68.50;;;;;;5064354;28;1349;-69
2022/11/11 13:11:27;;;;;;;;;;;19.60;68.50;;;;;;5064552;28;906;-69
2022/11/11 13:14:11;;;;;;;;;;;19.60;68.50;;;;;;5047821;28;1018;-69
2022/11/11 13:16:37;;;;;;;;;;;19.60;68.60;;;;;;5063955;28;800;-69
2022/11/11 13:19:03;;;;;;;;;;;19.60;68.70;;;;;;5059743;28;1265;-69
2022/11/11 13:21:49;;;;;;;;;;;19.60;68.80;;;;;;5063642;28;1970;-69
2022/11/11 13:24:16;;;;;;;;;;;19.60;68.80;;;;;;5061525;28;1127;-70
2022/11/11 13:27:01;;;;;;;;;;;19.60;68.80;;;;;;5029232;28;840;-70
2022/11/11 13:29:33;;;;;;;;;;;19.60;68.90;;;;;;5065246;28;1418;-70
2022/11/11 13:31:59;;;;;;;;;;;19.60;69.00;;;;;;5065934;28;1438;-70
2022/11/11 13:34:24;;;;;;;;;;;19.60;68.90;;;;;;5049046;28;906;-69
2022/11/11 13:36:50;;;;;;;;;;;19.60;69.00;;;;;;5064268;28;1005;-70
2022/11/11 13:39:23;;;;;;;;;;;19.60;69.00;;;;;;5044465;28;1272;-69
2022/11/11 13:41:49;;;;;;;;;;;19.60;69.10;;;;;;5058688;28;1909;-70
2022/11/11 13:44:20;;;;;;;;;;;19.60;69.10;;;;;;5050752;28;841;-69
2022/11/11 13:46:45;;;;;;;;;;;19.50;69.10;;;;;;5025379;28;1474;-70
2022/11/11 13:49:20;;;;;;;;;;;19.60;69.20;;;;;;5061527;28;1239;-70
2022/11/11 13:51:46;;;;;;;;;;;19.60;69.20;;;;;;5062300;28;866;-70
2022/11/11 13:54:25;;;;;;;;;;;19.60;69.20;;;;;;5050172;28;1251;-69
2022/11/11 13:56:51;;;;;;;;;;;19.60;70.00;;;;;;5045673;28;996;-69
2022/11/11 13:59:26;;;;;;;;;;;19.60;69.30;;;;;;5047533;28;1370;-69
2022/11/11 14:02:11;;;;;;;;;;;19.50;69.30;;;;;;5051397;28;1275;-69
2022/11/11 14:04:59;;;;;;;;;;;19.60;69.30;;;;;;5050637;28;1274;-69
2022/11/11 14:07:43;;;;;;;;;;;19.60;69.40;;;;;;5062745;28;1260;-69
2022/11/11 14:10:09;;;;;;;;;;;19.50;69.40;;;;;;5067307;28;863;-70
2022/11/11 14:12:38;;;;;;;;;;;19.50;69.40;;;;;;5048380;28;1022;-69
2022/11/11 14:15:06;;;;;;;;;;;19.50;69.40;;;;;;5047176;28;853;-69
2022/11/11 14:17:32;;;;;;;;;;;19.50;69.40;;;;;;5062324;28;1275;-69
2022/11/11 14:19:58;;;;;;;;;;;19.60;69.50;;;;;;5049119;28;1909;-69
2022/11/11 14:22:26;;;;;;;;;;;19.50;69.50;;;;;;5051785;28;1026;-69
2022/11/11 14:24:52;;;;;;;;;;;19.50;69.50;;;;;;5050298;28;1713;-69
2022/11/11 14:27:18;;;;;;;;;;;19.50;69.50;;;;;;5061816;28;1367;-69
2022/11/11 14:29:51;;;;;;;;;;;19.50;69.50;;;;;;5046777;28;1250;-71
2022/11/11 14:32:35;;;;;;;;;;;19.50;69.60;;;;;;5065991;28;1037;-69
2022/11/11 14:35:03;;;;;;;;;;;19.50;69.60;;;;;;5065422;28;835;-69
2022/11/11 14:37:50;;;;;;;;;;;19.50;69.60;;;;;;5057329;28;1258;-70
2022/11/11 14:40:25;;;;;;;;;;;19.50;69.70;;;;;;5043827;28;1979;-69
2022/11/11 14:42:51;;;;;;;;;;;19.50;69.60;;;;;;5053627;28;859;-68
2022/11/11 14:45:23;;;;;;;;;;;19.50;69.70;;;;;;5048406;28;939;-69
2022/11/11 14:47:48;;;;;;;;;;;19.50;69.70;;;;;;5062961;28;1689;-71
2022/11/11 14:50:37;;;;;;;;;;;19.50;69.70;;;;;;5045067;28;898;-70
2022/11/11 14:53:14;;;;;;;;;;;19.50;69.80;;;;;;5050997;28;1453;-69
2022/11/11 14:55:39;;;;;;;;;;;19.50;69.80;;;;;;5064760;28;815;-70
2022/11/11 14:58:14;;;;;;;;;;;19.50;69.80;;;;;;5048647;28;1366;-69
2022/11/11 15:00:45;;;;;;;;;;;19.50;69.80;;;;;;5048998;28;2249;-68
2022/11/11 15:03:16;;;;;;;;;;;19.50;69.80;;;;;;5064653;28;1302;-70
2022/11/11 15:05:45;;;;;;;;;;;19.50;69.90;;;;;;5064129;28;963;-69
2022/11/11 15:08:19;;;;;;;;;;;19.50;69.90;;;;;;5061138;28;1664;-69
2022/11/11 15:10:54;;;;;;;;;;;19.50;69.90;;;;;;5051554;28;1462;-71
2022/11/11 15:13:28;;;;;;;;;;;19.50;69.90;;;;;;5063902;28;1319;-71
2022/11/11 15:15:53;;;;;;;;;;;19.50;69.90;;;;;;5061094;28;1247;-68
2022/11/11 15:18:19;;;;;;;;;;;19.50;69.90;;;;;;5058810;28;1292;-68
2022/11/11 15:20:44;;;;;;;;;;;19.60;69.80;;;;;;5064124;28;1957;-68
2022/11/11 15:23:13;;;;;;;;;;;19.60;69.80;;;;;;5065345;28;805;-68
2022/11/11 15:25:48;;;;;;;;;;;19.60;69.70;;;;;;5049443;28;898;-68
2022/11/11 15:28:16;;;;;;;;;;;19.60;69.60;;;;;;5062811;28;1295;-69
2022/11/11 15:30:51;;;;;;;;;;;19.60;69.60;;;;;;5067396;28;846;-70
2022/11/11 15:33:27;;;;;;;;;;;19.70;69.50;;;;;;5064895;28;1366;-68
2022/11/11 15:35:56;;;;;;;;;;;19.70;69.50;;;;;;5047362;28;896;-69
2022/11/11 15:38:21;;;;;;;;;;;19.70;69.40;;;;;;5062780;28;1253;-69
2022/11/11 15:40:47;;;;;;;;;;;19.70;69.40;;;;;;5052016;28;1889;-68
2022/11/11 15:43:14;;;;;;;;;;;19.70;69.20;;;;;;5065285;28;853;-71
2022/11/11 15:45:40;;;;;;;;;;;19.80;69.20;;;;;;5053065;28;901;-69
2022/11/11 15:48:11;;;;;;;;;;;19.80;69.20;;;;;;5043051;28;1354;-70
2022/11/11 15:50:36;;;;;;;;;;;19.80;69.10;;;;;;5054508;28;1093;-70
2022/11/11 15:53:02;;;;;;;;;;;19.80;69.10;;;;;;5066119;28;819;-69
2022/11/11 15:55:29;;;;;;;;;;;19.80;69.00;;;;;;5064958;28;875;-69
2022/11/11 15:57:54;;;;;;;;;;;19.80;69.00;;;;;;5067630;28;1997;-69
2022/11/11 16:00:23;;;;;;;;;;;19.80;68.90;;;;;;5048546;28;1949;-70
2022/11/11 16:02:48;;;;;;;;;;;19.80;68.90;;;;;;5065569;28;1889;-70
2022/11/11 16:05:21;;;;;;;;;;;19.90;68.90;;;;;;5067827;28;1530;-70